Time;durP1;ratioP1;P1;durP2;ratioP2;P2;SDS_P1;SDS_P2;PMS_P1;PMS_P2;Temp;Humidity;BMP_temperature;BMP_pressure;BME280_temperature;BME280_humidity;BME280_pressure;Samples;Min_cycle;Max_cycle;Signal;HPM_P1;HPM_P2
2022/10/29 00:01:00;;;;;;;16.48;7.18;;;14.40;99.90;;;;;;4957869;28;20061;-67
2022/10/29 00:03:25;;;;;;;14.27;6.68;;;14.40;99.90;;;;;;4957321;28;20037;-65
2022/10/29 00:06:03;;;;;;;21.73;8.30;;;14.50;99.90;;;;;;4956962;28;20031;-65
2022/10/29 00:08:30;;;;;;;17.50;7.40;;;14.50;99.90;;;;;;4974847;28;20102;-67
2022/10/29 00:11:04;;;;;;;19.63;7.68;;;14.50;99.90;;;;;;4957038;28;20085;-65
2022/10/29 00:13:29;;;;;;;21.92;7.90;;;14.40;99.90;;;;;;4957208;28;20034;-67
2022/10/29 00:15:55;;;;;;;20.95;7.05;;;14.30;99.90;;;;;;4957170;28;20406;-65
2022/10/29 00:18:20;;;;;;;15.73;7.75;;;14.30;99.90;;;;;;4957079;28;20029;-65
2022/10/29 00:20:47;;;;;;;23.30;7.78;;;14.20;99.90;;;;;;4957060;28;20031;-65
2022/10/29 00:23:12;;;;;;;21.45;7.13;;;14.10;99.90;;;;;;4958204;28;20026;-65
2022/10/29 00:25:38;;;;;;;20.83;6.68;;;14.10;99.90;;;;;;4957135;28;20103;-65
2022/10/29 00:28:03;;;;;;;20.83;6.93;;;14.10;99.90;;;;;;4974242;28;20039;-65
2022/10/29 00:30:29;;;;;;;17.63;6.95;;;14.20;99.90;;;;;;4976384;28;20102;-65
2022/10/29 00:32:55;;;;;;;17.50;6.30;;;14.10;99.90;;;;;;4960798;28;20033;-65
2022/10/29 00:35:21;;;;;;;17.92;6.22;;;14.10;99.90;;;;;;4961378;28;20031;-65
2022/10/29 00:37:46;;;;;;;13.48;6.45;;;14.20;99.90;;;;;;4961316;28;20031;-65
2022/10/29 00:40:12;;;;;;;15.05;6.88;;;14.20;99.90;;;;;;4978144;28;20037;-65
2022/10/29 00:42:37;;;;;;;16.42;6.55;;;14.10;99.90;;;;;;4961510;28;20109;-65
2022/10/29 00:45:03;;;;;;;21.13;7.03;;;14.10;99.90;;;;;;4960659;28;20046;-65
2022/10/29 00:47:33;;;;;;;16.58;6.75;;;14.10;99.90;;;;;;4960423;28;20023;-66
2022/10/29 00:50:05;;;;;;;23.67;7.20;;;14.00;99.90;;;;;;4960528;28;20025;-65
2022/10/29 00:52:32;;;;;;;;;;;14.00;99.90;;;;;;4961463;28;20027;-65
2022/10/29 00:55:01;;;;;;;18.77;6.97;;;14.00;99.90;;;;;;4977841;28;19906;-65
2022/10/29 00:57:35;;;;;;;17.80;6.75;;;14.00;99.90;;;;;;4960333;28;20054;-65
2022/10/29 01:00:01;;;;;;;22.65;7.22;;;14.10;99.90;;;;;;4960437;28;20037;-65
2022/10/29 01:02:28;;;;;;;18.08;6.88;;;14.10;99.90;;;;;;4960347;28;20023;-65
2022/10/29 01:04:54;;;;;;;17.23;6.85;;;14.00;99.90;;;;;;4960816;28;20030;-65
2022/10/29 01:07:21;;;;;;;17.73;6.88;;;14.00;99.90;;;;;;4977930;28;20023;-67
2022/10/29 01:09:46;;;;;;;21.38;6.90;;;14.10;99.90;;;;;;4977449;28;20031;-66
2022/10/29 01:12:33;;;;;;;17.25;6.72;;;14.00;99.90;;;;;;4977503;28;20034;-66
2022/10/29 01:15:27;;;;;;;15.80;7.00;;;14.00;99.90;;;;;;4960057;28;20486;-66
2022/10/29 01:17:58;;;;;;;19.15;6.57;;;14.00;99.90;;;;;;4977564;28;20084;-64
2022/10/29 01:20:33;;;;;;;13.15;6.30;;;13.90;99.90;;;;;;4960873;28;20026;-64
2022/10/29 01:23:29;;;;;;;17.75;7.00;;;13.90;99.90;;;;;;4960208;28;20082;-64
2022/10/29 01:26:19;;;;;;;15.80;6.55;;;13.80;99.90;;;;;;4977250;28;20034;-64
2022/10/29 01:29:18;;;;;;;14.75;6.75;;;13.80;99.90;;;;;;4959873;28;20023;-64
2022/10/29 01:32:20;;;;;;;12.23;6.40;;;13.90;99.90;;;;;;4977425;28;20023;-64
2022/10/29 01:35:03;;;;;;;18.45;6.53;;;13.80;99.90;;;;;;4960573;28;20160;-64
2022/10/29 01:37:41;;;;;;;15.27;6.85;;;13.80;99.90;;;;;;4959619;28;20189;-65
2022/10/29 01:40:43;;;;;;;23.63;6.88;;;13.80;99.90;;;;;;4960725;28;20073;-64
2022/10/29 01:43:21;;;;;;;19.17;7.60;;;13.70;99.90;;;;;;4946155;28;20401;-64
2022/10/29 01:45:53;;;;;;;13.00;5.97;;;13.60;99.90;;;;;;4960750;28;20023;-64
2022/10/29 01:48:26;;;;;;;19.17;6.95;;;13.60;99.90;;;;;;4977134;28;20023;-64
2022/10/29 01:50:55;;;;;;;16.48;6.32;;;13.60;99.90;;;;;;4959535;28;20050;-64
2022/10/29 01:53:22;;;;;;;16.65;7.15;;;13.70;99.90;;;;;;4976839;28;20042;-64
2022/10/29 01:55:47;;;;;;;13.48;7.03;;;13.80;99.90;;;;;;4959516;28;20030;-64
2022/10/29 01:58:13;;;;;;;14.10;6.45;;;13.80;99.90;;;;;;4959239;28;20393;-64
2022/10/29 02:00:49;;;;;;;18.17;6.53;;;13.80;99.90;;;;;;4959330;28;20077;-64
2022/10/29 02:03:26;;;;;;;13.20;6.82;;;13.70;99.90;;;;;;4959459;28;20027;-64
2022/10/29 02:06:35;;;;;;;14.32;6.53;;;13.60;99.90;;;;;;4959222;28;20050;-64
2022/10/29 02:09:26;;;;;;;13.32;6.30;;;13.50;99.90;;;;;;4959175;28;20121;-64
2022/10/29 02:12:22;;;;;;;15.57;5.90;;;13.50;99.90;;;;;;4976491;28;20034;-64
2022/10/29 02:14:56;;;;;;;21.17;6.25;;;13.40;99.90;;;;;;4976416;28;20023;-64
2022/10/29 02:17:22;;;;;;;15.75;6.10;;;13.30;99.90;;;;;;4976942;28;20030;-66
2022/10/29 02:19:47;;;;;;;17.65;5.97;;;13.20;99.90;;;;;;4959206;28;20034;-64
2022/10/29 02:22:13;;;;;;;14.50;5.88;;;13.20;99.90;;;;;;4959178;28;20027;-67
2022/10/29 02:24:38;;;;;;;13.25;6.15;;;13.30;99.90;;;;;;4976504;28;20031;-66
2022/10/29 02:27:04;;;;;;;12.75;5.50;;;13.30;99.90;;;;;;4959304;28;20023;-66
2022/10/29 02:29:29;;;;;;;19.95;5.95;;;13.20;99.90;;;;;;4958853;28;20084;-64
2022/10/29 02:31:55;;;;;;;14.68;6.70;;;13.20;99.90;;;;;;4958785;28;20062;-64
2022/10/29 02:34:20;;;;;;;26.58;6.30;;;13.30;99.90;;;;;;4976661;28;20045;-67
2022/10/29 02:36:46;;;;;;;13.32;6.63;;;13.30;99.90;;;;;;4959003;28;20031;-64
2022/10/29 02:39:11;;;;;;;13.50;5.75;;;13.30;99.90;;;;;;4958581;28;20182;-64
2022/10/29 02:41:37;;;;;;;13.80;5.78;;;13.30;99.90;;;;;;4975840;28;20082;-66
2022/10/29 02:44:02;;;;;;;16.30;5.68;;;13.30;99.90;;;;;;4958807;28;20046;-66
2022/10/29 02:46:29;;;;;;;18.73;6.28;;;13.30;99.90;;;;;;4958479;28;20509;-68
2022/10/29 02:48:54;;;;;;;20.17;5.53;;;13.20;99.90;;;;;;4958400;28;20042;-68
2022/10/29 02:51:20;;;;;;;19.35;6.40;;;13.20;99.90;;;;;;4958315;28;20030;-66
2022/10/29 02:53:45;;;;;;;17.33;6.15;;;13.20;99.90;;;;;;4958508;28;20073;-66
2022/10/29 02:56:11;;;;;;;14.95;6.78;;;13.10;99.90;;;;;;4958665;28;20023;-68
2022/10/29 02:58:37;;;;;;;10.43;5.32;;;13.00;99.90;;;;;;4975502;28;20042;-69
2022/10/29 03:01:03;;;;;;;15.48;5.15;;;12.90;99.90;;;;;;4975695;28;20186;-69
2022/10/29 03:03:28;;;;;;;15.55;6.22;;;12.90;99.90;;;;;;4958218;28;20069;-69
2022/10/29 03:05:54;;;;;;;15.50;5.70;;;12.90;99.90;;;;;;4958051;28;20026;-69
2022/10/29 03:08:19;;;;;;;19.08;6.47;;;12.80;99.90;;;;;;4957917;28;20034;-68
2022/10/29 03:10:45;;;;;;;18.63;5.63;;;12.90;99.90;;;;;;4957938;28;20021;-69
2022/10/29 03:13:11;;;;;;;20.83;5.60;;;12.80;99.90;;;;;;4957952;28;20026;-69
2022/10/29 03:15:37;;;;;;;14.25;4.95;;;12.80;99.90;;;;;;4975308;28;20022;-69
2022/10/29 03:18:03;;;;;;;11.95;5.70;;;12.90;99.90;;;;;;4958093;28;20038;-68
2022/10/29 03:20:30;;;;;;;17.35;6.38;;;13.00;99.90;;;;;;4958551;28;20031;-69
2022/10/29 03:22:55;;;;;;;17.00;5.68;;;13.00;99.90;;;;;;4958083;28;20033;-69
2022/10/29 03:25:21;;;;;;;14.10;6.35;;;13.10;99.90;;;;;;4957727;28;20113;-69
2022/10/29 03:27:47;;;;;;;13.95;5.57;;;13.10;99.90;;;;;;4975378;28;20034;-69
2022/10/29 03:30:14;;;;;;;15.70;6.82;;;13.10;99.90;;;;;;4957945;28;20029;-69
2022/10/29 03:32:44;;;;;;;14.45;6.68;;;13.10;99.90;;;;;;4957922;28;20401;-69
2022/10/29 03:35:12;;;;;;;13.90;6.03;;;13.10;99.90;;;;;;4957814;28;20050;-69
2022/10/29 03:37:37;;;;;;;12.88;6.28;;;13.10;99.90;;;;;;4957714;28;20026;-69
2022/10/29 03:40:04;;;;;;;20.65;5.78;;;13.10;99.90;;;;;;4958126;28;20082;-69
2022/10/29 03:42:30;;;;;;;13.80;5.97;;;13.10;99.90;;;;;;4975538;28;20035;-69
2022/10/29 03:44:57;;;;;;;9.93;5.60;;;13.00;99.90;;;;;;5027552;23;20109;-66
2022/10/29 03:47:23;;;;;;;13.15;5.35;;;13.00;99.90;;;;;;4996273;28;20030;-66
2022/10/29 03:49:48;;;;;;;13.00;6.28;;;12.90;99.90;;;;;;4996520;28;20101;-66
2022/10/29 03:52:14;;;;;;;15.13;6.32;;;12.80;99.90;;;;;;4997201;28;20030;-66
2022/10/29 03:54:39;;;;;;;23.05;5.68;;;12.80;99.90;;;;;;4983055;28;20026;-66
2022/10/29 03:57:05;;;;;;;14.07;5.95;;;12.90;99.90;;;;;;4976653;28;20027;-66
2022/10/29 03:59:30;;;;;;;12.63;5.47;;;12.80;99.90;;;;;;4994305;28;20146;-66
2022/10/29 04:01:56;;;;;;;16.10;5.20;;;12.70;99.90;;;;;;4977658;28;20033;-66
2022/10/29 04:04:21;;;;;;;15.02;5.00;;;12.60;99.90;;;;;;4976337;28;20023;-66
2022/10/29 04:06:47;;;;;;;12.45;4.75;;;12.60;99.90;;;;;;4976609;28;20395;-66
2022/10/29 04:09:12;;;;;;;14.50;5.45;;;12.60;99.90;;;;;;4976798;28;20026;-66
2022/10/29 04:11:38;;;;;;;14.90;5.35;;;12.60;99.90;;;;;;4976461;28;20022;-66
2022/10/29 04:14:03;;;;;;;12.10;5.65;;;12.60;99.90;;;;;;4976474;28;20026;-66
2022/10/29 04:16:29;;;;;;;19.65;5.53;;;12.60;99.90;;;;;;4976449;28;20030;-66
2022/10/29 04:18:54;;;;;;;10.40;4.90;;;12.60;99.90;;;;;;4976653;28;20034;-66
2022/10/29 04:21:20;;;;;;;13.23;4.95;;;12.60;99.90;;;;;;4993972;28;20081;-66
2022/10/29 04:23:45;;;;;;;16.40;5.32;;;12.60;99.90;;;;;;4976208;28;20393;-66
2022/10/29 04:26:11;;;;;;;17.73;5.53;;;12.60;99.90;;;;;;4976728;28;20023;-66
2022/10/29 04:28:36;;;;;;;13.10;5.15;;;12.60;99.90;;;;;;4976292;28;20018;-66
2022/10/29 04:31:06;;;;;;;11.88;6.05;;;12.60;99.90;;;;;;4976271;28;20113;-66
2022/10/29 04:33:32;;;;;;;12.85;5.30;;;12.60;99.90;;;;;;4976410;28;20469;-66
2022/10/29 04:35:58;;;;;;;9.70;4.95;;;12.60;99.90;;;;;;4993664;28;20031;-66
2022/10/29 04:38:23;;;;;;;9.98;4.60;;;12.60;99.90;;;;;;4993921;28;20090;-66
2022/10/29 04:40:49;;;;;;;13.15;5.00;;;12.50;99.90;;;;;;4976507;28;20018;-66
2022/10/29 04:43:15;;;;;;;9.68;5.20;;;12.50;99.90;;;;;;4976569;28;20080;-66
2022/10/29 04:45:40;;;;;;;14.98;5.28;;;12.50;99.90;;;;;;4976214;28;20087;-65
2022/10/29 04:48:06;;;;;;;15.32;5.15;;;12.50;99.90;;;;;;4976470;28;20113;-65
2022/10/29 04:50:35;;;;;;;11.43;5.32;;;12.50;99.90;;;;;;4993563;28;20030;-65
2022/10/29 04:53:02;;;;;;;16.08;5.55;;;12.50;99.90;;;;;;4977044;28;20037;-65
2022/10/29 04:55:28;;;;;;;16.48;5.00;;;12.50;99.90;;;;;;4976987;28;20030;-66
2022/10/29 04:57:54;;;;;;;7.85;4.82;;;12.50;99.90;;;;;;4976497;28;20030;-66
2022/10/29 05:00:21;;;;;;;9.25;4.70;;;12.60;99.90;;;;;;4993701;28;20048;-66
2022/10/29 05:02:51;;;;;;;6.90;4.07;;;12.50;99.90;;;;;;4994237;28;20034;-66
2022/10/29 05:05:18;;;;;;;15.15;4.30;;;12.50;99.90;;;;;;4976480;28;20089;-66
2022/10/29 05:07:43;;;;;;;13.18;4.82;;;12.40;99.90;;;;;;4993447;28;20022;-66
2022/10/29 05:10:09;;;;;;;15.68;4.90;;;12.40;99.90;;;;;;4993424;28;20033;-66
2022/10/29 05:12:35;;;;;;;11.32;4.90;;;12.40;99.90;;;;;;4976027;28;20029;-65
2022/10/29 05:15:00;;;;;;;17.13;5.10;;;12.30;99.90;;;;;;4993289;28;20068;-66
2022/10/29 05:17:26;;;;;;;13.88;4.72;;;12.20;99.90;;;;;;4977457;28;20030;-66
2022/10/29 05:19:51;;;;;;;16.23;5.43;;;12.30;99.90;;;;;;4979417;28;20109;-66
2022/10/29 05:22:17;;;;;;;17.23;5.35;;;12.40;99.90;;;;;;4979505;28;20030;-66
2022/10/29 05:24:43;;;;;;;13.73;5.60;;;12.40;99.90;;;;;;4980015;28;20113;-66
2022/10/29 05:27:08;;;;;;;8.80;4.55;;;12.40;99.90;;;;;;4980323;28;20370;-66
2022/10/29 05:29:34;;;;;;;14.75;5.13;;;12.50;99.90;;;;;;4979186;28;20096;-66
2022/10/29 05:31:59;;;;;;;8.23;4.18;;;12.60;99.90;;;;;;4979116;28;20028;-66
2022/10/29 05:34:25;;;;;;;12.00;5.25;;;12.70;99.90;;;;;;4997020;28;20026;-66
2022/10/29 05:36:51;;;;;;;11.50;4.28;;;12.70;99.90;;;;;;4996466;28;20486;-66
2022/10/29 05:39:16;;;;;;;13.88;5.13;;;12.70;99.90;;;;;;4996550;28;20026;-66
2022/10/29 05:41:42;;;;;;;16.95;5.35;;;12.60;99.90;;;;;;4979247;28;20033;-66
2022/10/29 05:44:08;;;;;;;13.73;5.80;;;12.70;99.90;;;;;;4996379;28;20038;-66
2022/10/29 05:46:33;;;;;;;17.50;5.70;;;12.70;99.90;;;;;;4979330;28;20089;-66
2022/10/29 05:48:59;;;;;;;16.58;5.35;;;12.70;99.90;;;;;;4978888;28;20045;-67
2022/10/29 05:51:24;;;;;;;11.75;5.25;;;12.70;99.90;;;;;;4978876;28;20121;-67
2022/10/29 05:53:50;;;;;;;17.23;5.47;;;12.60;99.90;;;;;;4978888;28;20117;-66
2022/10/29 05:56:15;;;;;;;13.85;5.80;;;12.60;99.90;;;;;;4978810;28;20022;-65
2022/10/29 05:58:41;;;;;;;11.38;5.85;;;12.50;99.90;;;;;;4978681;28;20026;-65
2022/10/29 06:01:08;;;;;;;16.90;6.13;;;12.40;99.90;;;;;;4979110;28;20022;-65
2022/10/29 06:03:34;;;;;;;8.23;5.38;;;12.40;99.90;;;;;;4978827;28;20030;-66
2022/10/29 06:05:59;;;;;;;14.40;5.30;;;12.40;99.90;;;;;;4978498;28;20018;-66
2022/10/29 06:08:25;;;;;;;13.15;4.70;;;12.40;99.90;;;;;;4995897;28;20026;-66
2022/10/29 06:10:50;;;;;;;9.07;5.00;;;12.40;99.90;;;;;;4978415;28;20022;-66
2022/10/29 06:13:18;;;;;;;14.63;5.47;;;12.40;99.90;;;;;;4978355;28;20029;-66
2022/10/29 06:15:45;;;;;;;17.70;6.38;;;12.50;99.90;;;;;;4978357;28;20125;-66
2022/10/29 06:18:11;;;;;;;16.83;5.85;;;12.50;99.90;;;;;;4978257;28;20109;-66
2022/10/29 06:20:37;;;;;;;14.90;6.55;;;12.60;99.90;;;;;;4995845;28;20142;-66
2022/10/29 06:23:04;;;;;;;12.77;6.03;;;12.60;99.90;;;;;;4995487;28;20102;-66
2022/10/29 06:25:30;;;;;;;15.90;5.70;;;12.70;99.90;;;;;;4995829;28;20054;-66
2022/10/29 06:27:58;;;;;;;10.10;5.78;;;12.70;99.90;;;;;;4977651;28;20026;-67
2022/10/29 06:30:24;;;;;;;20.92;6.38;;;12.70;99.90;;;;;;4978304;28;20027;-67
2022/10/29 06:32:49;;;;;;;17.42;6.43;;;12.70;99.90;;;;;;4995659;28;20036;-67
2022/10/29 06:35:15;;;;;;;17.02;5.63;;;12.70;99.90;;;;;;4978291;28;20116;-67
2022/10/29 06:37:40;;;;;;;18.88;6.18;;;12.70;99.90;;;;;;4978805;28;20022;-67
2022/10/29 06:40:06;;;;;;;14.70;5.60;;;12.80;99.90;;;;;;4995369;28;20026;-67
2022/10/29 06:42:32;;;;;;;15.65;6.85;;;12.70;99.90;;;;;;4977755;28;20030;-67
2022/10/29 06:44:57;;;;;;;55.08;9.65;;;12.70;99.90;;;;;;4995040;28;20054;-67
2022/10/29 06:47:23;;;;;;;24.63;8.20;;;12.80;99.90;;;;;;4978182;28;20034;-67
2022/10/29 06:49:48;;;;;;;19.77;6.57;;;12.80;99.90;;;;;;4978047;28;20057;-67
2022/10/29 06:52:14;;;;;;;15.75;6.30;;;12.90;99.90;;;;;;4978058;28;20023;-67
2022/10/29 06:54:39;;;;;;;17.60;7.18;;;12.90;99.90;;;;;;4977578;28;20441;-67
2022/10/29 06:57:05;;;;;;;13.13;5.78;;;12.90;99.90;;;;;;4977646;28;20037;-67
2022/10/29 06:59:30;;;;;;;17.08;6.35;;;12.90;99.90;;;;;;4977926;28;20023;-67
2022/10/29 07:01:56;;;;;;;49.10;9.70;;;12.80;99.90;;;;;;4977587;28;20053;-67
2022/10/29 07:04:21;;;;;;;60.92;12.45;;;12.80;99.90;;;;;;4994812;28;20105;-67
2022/10/29 07:06:47;;;;;;;149.98;26.08;;;12.80;99.90;;;;;;4978268;28;20030;-67
2022/10/29 07:09:12;;;;;;;71.97;12.65;;;13.00;99.90;;;;;;4994758;28;20073;-67
2022/10/29 07:11:38;;;;;;;41.17;8.63;;;13.10;99.90;;;;;;4994998;28;20027;-67
2022/10/29 07:14:08;;;;;;;32.42;9.20;;;13.00;99.90;;;;;;4977446;28;20037;-67
2022/10/29 07:16:34;;;;;;;38.67;8.25;;;13.10;99.90;;;;;;4978196;28;20026;-67
2022/10/29 07:19:00;;;;;;;24.83;7.50;;;13.00;99.90;;;;;;4977745;28;20037;-67
2022/10/29 07:21:26;;;;;;;26.33;8.10;;;13.10;99.90;;;;;;4994491;28;20037;-67
2022/10/29 07:23:51;;;;;;;31.63;8.95;;;13.10;99.90;;;;;;4977364;28;20027;-67
2022/10/29 07:26:17;;;;;;;15.05;7.10;;;13.10;99.90;;;;;;4977121;28;20033;-66
2022/10/29 07:28:42;;;;;;;12.18;6.70;;;13.10;99.90;;;;;;4977464;28;20030;-66
2022/10/29 07:31:08;;;;;;;12.80;5.95;;;13.10;99.90;;;;;;4995032;28;20082;-66
2022/10/29 07:33:33;;;;;;;19.02;7.15;;;13.10;99.90;;;;;;4994336;28;20034;-66
2022/10/29 07:35:59;;;;;;;31.73;12.60;;;13.10;99.90;;;;;;4977621;28;20014;-66
2022/10/29 07:38:25;;;;;;;20.70;11.95;;;13.20;99.90;;;;;;4976875;28;20019;-66
2022/10/29 07:40:51;;;;;;;22.20;11.07;;;13.30;99.90;;;;;;4976191;28;20014;-66
2022/10/29 07:43:18;;;;;;;26.58;17.13;;;13.30;99.90;;;;;;4994227;28;20026;-66
2022/10/29 07:45:44;;;;;;;32.15;17.55;;;13.40;99.90;;;;;;4978050;28;20146;-66
2022/10/29 07:48:10;;;;;;;19.38;11.30;;;13.40;99.90;;;;;;4977661;28;20030;-66
2022/10/29 07:50:37;;;;;;;16.65;8.63;;;13.40;99.90;;;;;;4977032;28;20072;-66
2022/10/29 07:53:03;;;;;;;11.38;6.28;;;13.30;99.90;;;;;;4976919;28;20030;-65
2022/10/29 07:55:29;;;;;;;13.60;6.05;;;13.20;99.90;;;;;;4994357;28;20544;-65
2022/10/29 07:58:00;;;;;;;20.08;6.80;;;13.30;99.90;;;;;;4976710;28;20022;-65
2022/10/29 08:00:29;;;;;;;11.68;6.15;;;13.30;99.90;;;;;;4976602;28;20026;-65
2022/10/29 08:02:56;;;;;;;14.10;6.35;;;13.30;99.90;;;;;;4976505;28;20026;-65
2022/10/29 08:05:23;;;;;;;20.02;6.32;;;13.40;99.90;;;;;;4976609;28;20057;-65
2022/10/29 08:07:51;;;;;;;16.80;6.18;;;13.40;99.90;;;;;;4976892;28;20026;-65
2022/10/29 08:10:17;;;;;;;17.75;6.35;;;13.50;99.90;;;;;;4976727;28;20027;-66
2022/10/29 08:13:09;;;;;;;15.57;6.45;;;13.50;99.90;;;;;;4993873;28;20037;-66
2022/10/29 08:15:34;;;;;;;;;;;13.50;99.90;;;;;;4973505;28;20038;-66
2022/10/29 08:18:01;;;;;;;17.65;6.82;;;13.60;99.90;;;;;;4976719;28;19913;-66
2022/10/29 08:20:28;;;;;;;15.77;6.65;;;13.70;99.90;;;;;;4976339;28;20078;-66
2022/10/29 08:22:53;;;;;;;18.92;7.20;;;13.70;99.90;;;;;;4976514;28;20122;-65
2022/10/29 08:25:19;;;;;;;13.35;6.22;;;13.80;99.90;;;;;;4976231;28;20130;-66
2022/10/29 08:28:00;;;;;;;11.88;6.28;;;13.80;99.90;;;;;;4976297;28;20066;-66
2022/10/29 08:30:26;;;;;;;17.17;6.00;;;13.90;99.90;;;;;;4976236;28;20474;-66
2022/10/29 08:32:51;;;;;;;13.57;6.40;;;13.90;99.90;;;;;;4976594;28;20027;-66
2022/10/29 08:35:17;;;;;;;17.27;6.40;;;14.00;99.90;;;;;;4993598;28;20078;-66
2022/10/29 08:37:43;;;;;;;46.03;8.70;;;14.00;99.90;;;;;;4976369;28;20030;-66
2022/10/29 08:40:23;;;;;;;44.78;8.75;;;14.10;99.90;;;;;;4976554;28;20061;-65
2022/10/29 08:43:17;;;;;;;27.48;7.10;;;14.10;99.90;;;;;;4976174;28;20030;-65
2022/10/29 08:45:48;;;;;;;17.92;7.15;;;14.10;99.90;;;;;;4958534;28;20038;-65
2022/10/29 08:48:32;;;;;;;13.30;6.00;;;14.20;99.90;;;;;;4976136;28;20093;-65
2022/10/29 08:51:15;;;;;;;24.08;9.77;;;14.20;99.90;;;;;;4977761;28;20027;-65
2022/10/29 08:53:48;;;;;;;25.83;12.65;;;14.30;99.90;;;;;;4980551;28;20026;-65
2022/10/29 08:56:35;;;;;;;24.67;11.82;;;14.40;99.90;;;;;;4980102;28;20022;-65
2022/10/29 08:59:13;;;;;;;25.52;11.05;;;14.40;99.90;;;;;;4980606;28;20026;-65
2022/10/29 09:01:38;;;;;;;33.30;11.60;;;14.50;99.90;;;;;;4980524;28;20117;-65
2022/10/29 09:04:34;;;;;;;22.08;10.07;;;14.60;99.90;;;;;;4996982;28;20086;-65
2022/10/29 09:07:14;;;;;;;21.17;11.48;;;14.80;99.90;;;;;;4979733;28;20022;-65
2022/10/29 09:10:15;;;;;;;27.52;14.00;;;14.90;99.90;;;;;;4996987;28;20102;-65
2022/10/29 09:13:14;;;;;;;24.50;11.65;;;14.90;99.90;;;;;;4979718;28;20050;-65
2022/10/29 09:15:48;;;;;;;20.65;9.32;;;15.00;99.90;;;;;;4966558;28;20038;-64
2022/10/29 09:18:40;;;;;;;18.75;8.95;;;15.00;99.90;;;;;;4996957;28;20026;-64
2022/10/29 09:21:10;;;;;;;18.45;8.68;;;15.00;99.90;;;;;;4996894;28;20032;-65
2022/10/29 09:23:52;;;;;;;20.35;7.50;;;15.00;99.90;;;;;;4979212;28;20029;-64
2022/10/29 09:26:42;;;;;;;22.90;6.82;;;15.00;99.90;;;;;;4980298;28;20112;-64
2022/10/29 09:29:27;;;;;;;21.63;7.72;;;15.00;99.90;;;;;;4979317;28;20050;-65
2022/10/29 09:32:04;;;;;;;22.15;8.10;;;15.20;99.90;;;;;;4979367;28;20022;-65
2022/10/29 09:34:38;;;;;;;16.75;7.57;;;15.20;99.90;;;;;;4979297;28;20037;-66
2022/10/29 09:37:20;;;;;;;21.85;6.97;;;15.30;99.90;;;;;;4979277;28;20030;-65
2022/10/29 09:39:46;;;;;;;13.30;6.22;;;15.40;99.90;;;;;;4996750;28;20504;-65
2022/10/29 09:42:18;;;;;;;26.83;6.82;;;15.50;99.90;;;;;;4979340;28;20026;-65
2022/10/29 09:44:56;;;;;;;;;;;15.70;99.90;;;;;;4991678;23;20126;-68
2022/10/29 09:47:41;;;;;;;19.27;7.55;;;15.70;99.90;;;;;;4961022;28;19956;-68
2022/10/29 09:50:25;;;;;;;22.52;7.20;;;15.80;99.90;;;;;;4961397;28;20029;-68
2022/10/29 09:52:52;;;;;;;20.58;7.60;;;15.90;99.90;;;;;;4960593;28;20030;-68
2022/10/29 09:55:28;;;;;;;16.67;7.15;;;15.90;99.90;;;;;;4961079;28;20034;-68
2022/10/29 09:57:56;;;;;;;13.75;7.07;;;15.90;99.90;;;;;;4960904;28;20027;-68
2022/10/29 10:00:27;;;;;;;23.10;6.88;;;15.90;99.90;;;;;;4960265;28;20031;-68
2022/10/29 10:03:10;;;;;;;23.58;6.35;;;15.90;99.90;;;;;;4959755;28;20050;-68
2022/10/29 10:05:54;;;;;;;17.75;7.53;;;16.00;99.90;;;;;;4977445;28;20062;-68
2022/10/29 10:08:20;;;;;;;20.35;6.82;;;16.00;99.90;;;;;;4960415;28;20034;-68
2022/10/29 10:10:54;;;;;;;19.02;6.78;;;16.00;99.90;;;;;;4959723;28;20029;-68
2022/10/29 10:13:23;;;;;;;20.38;6.60;;;16.10;99.90;;;;;;4960311;28;20030;-68
2022/10/29 10:15:55;;;;;;;14.13;6.53;;;16.10;99.90;;;;;;4959288;28;20098;-68
2022/10/29 10:18:26;;;;;;;23.15;7.32;;;16.30;99.90;;;;;;4959105;28;20118;-68
2022/10/29 10:21:05;;;;;;;19.80;7.72;;;16.40;99.90;;;;;;4960348;28;20074;-68
2022/10/29 10:23:51;;;;;;;15.52;6.35;;;16.40;99.90;;;;;;4959032;28;20502;-67
2022/10/29 10:26:31;;;;;;;20.20;8.10;;;16.60;99.90;;;;;;4959268;28;20034;-68
2022/10/29 10:29:17;;;;;;;19.27;8.43;;;16.60;99.90;;;;;;4976268;28;20035;-68
2022/10/29 10:31:44;;;;;;;20.27;7.65;;;16.70;99.90;;;;;;4958791;28;20030;-67
2022/10/29 10:34:18;;;;;;;19.60;7.65;;;16.70;99.90;;;;;;4976080;28;20062;-68
2022/10/29 10:36:48;;;;;;;22.65;6.95;;;16.80;99.90;;;;;;4958965;28;20093;-67
2022/10/29 10:39:23;;;;;;;17.88;5.80;;;17.00;99.90;;;;;;4959418;28;20110;-67
2022/10/29 10:41:50;;;;;;;16.30;6.88;;;17.00;99.90;;;;;;4976132;28;20027;-68
2022/10/29 10:44:18;;;;;;;17.70;6.68;;;17.10;99.90;;;;;;4958711;28;20167;-67
2022/10/29 10:46:44;;;;;;;17.95;6.93;;;17.20;99.90;;;;;;4959058;28;20023;-68
2022/10/29 10:49:10;;;;;;;16.42;5.95;;;17.20;99.90;;;;;;4959289;28;20027;-68
2022/10/29 10:51:38;;;;;;;16.88;6.30;;;17.20;99.90;;;;;;4958821;28;20097;-68
2022/10/29 10:54:24;;;;;;;12.27;6.35;;;17.20;99.90;;;;;;4975947;28;20027;-68
2022/10/29 10:57:16;;;;;;;16.88;6.35;;;17.20;99.90;;;;;;4959368;28;20086;-68
2022/10/29 11:00:06;;;;;;;17.33;6.22;;;17.20;99.90;;;;;;4958323;28;20027;-69
2022/10/29 11:02:55;;;;;;;21.67;6.40;;;17.40;99.90;;;;;;4975557;28;20027;-69
2022/10/29 11:05:27;;;;;;;12.32;6.30;;;17.60;99.90;;;;;;4975595;28;20066;-69
2022/10/29 11:08:11;;;;;;;31.95;6.32;;;17.40;99.90;;;;;;4958820;28;20038;-69
2022/10/29 11:10:51;;;;;;;14.85;6.15;;;17.30;99.90;;;;;;4958099;28;20029;-69
2022/10/29 11:13:21;;;;;;;17.25;6.97;;;17.20;99.90;;;;;;4958948;28;20095;-69
2022/10/29 11:16:05;;;;;;;15.25;6.47;;;17.20;99.90;;;;;;4957937;28;20037;-68
2022/10/29 11:18:50;;;;;;;15.90;6.22;;;17.20;99.90;;;;;;4959151;28;20034;-69
2022/10/29 11:21:24;;;;;;;18.33;6.85;;;17.30;99.90;;;;;;4958033;28;20441;-69
2022/10/29 11:23:59;;;;;;;20.52;6.53;;;17.50;99.90;;;;;;4958035;28;20023;-69
2022/10/29 11:26:38;;;;;;;19.02;6.32;;;17.50;99.90;;;;;;4958159;28;20497;-69
2022/10/29 11:29:29;;;;;;;18.27;6.43;;;17.50;99.90;;;;;;4975435;28;20078;-69
2022/10/29 11:32:18;;;;;;;21.10;7.20;;;17.70;99.90;;;;;;4958675;28;20098;-69
2022/10/29 11:34:58;;;;;;;18.15;7.18;;;17.90;99.90;;;;;;4957763;28;20038;-69
2022/10/29 11:37:55;;;;;;;15.55;6.47;;;18.20;99.90;;;;;;4957774;28;20022;-69
2022/10/29 11:40:34;;;;;;;20.17;7.43;;;18.00;99.90;;;;;;4974991;28;20023;-69
2022/10/29 11:43:02;;;;;;;23.15;7.22;;;18.10;99.90;;;;;;4957586;28;20037;-69
2022/10/29 11:45:58;;;;;;;19.30;6.72;;;18.20;99.90;;;;;;4975392;28;20053;-69
2022/10/29 11:48:39;;;;;;;20.15;6.95;;;18.30;99.90;;;;;;4958248;28;20099;-69
2022/10/29 11:51:17;;;;;;;19.23;7.57;;;18.40;99.90;;;;;;4957715;28;20029;-69
2022/10/29 11:54:00;;;;;;;27.05;7.60;;;18.50;99.90;;;;;;4957727;28;20118;-68
2022/10/29 11:56:40;;;;;;;16.88;7.03;;;18.60;99.90;;;;;;4974889;28;20039;-69
2022/10/29 11:59:31;;;;;;;23.13;6.82;;;18.90;99.90;;;;;;4957429;28;20026;-68
2022/10/29 12:02:26;;;;;;;14.77;6.50;;;19.10;99.90;;;;;;4958319;28;20023;-68
2022/10/29 12:05:26;;;;;;;21.15;6.63;;;19.20;99.90;;;;;;4935735;28;20049;-69
2022/10/29 12:08:26;;;;;;;19.42;6.03;;;18.90;99.90;;;;;;4975212;28;20023;-67
2022/10/29 12:11:16;;;;;;;22.25;7.57;;;18.80;99.90;;;;;;4975745;28;20088;-68
2022/10/29 12:14:29;;;;;;;20.80;5.82;;;18.90;99.90;;;;;;4957671;28;20030;-68
2022/10/29 12:17:10;;;;;;;17.35;6.50;;;18.90;99.90;;;;;;4958199;28;20037;-68
2022/10/29 12:19:42;;;;;;;18.98;6.45;;;19.10;99.90;;;;;;4957314;28;20027;-69
2022/10/29 12:22:07;;;;;;;21.65;5.70;;;19.40;99.90;;;;;;4957526;28;20129;-70
2022/10/29 12:25:02;;;;;;;29.73;6.63;;;19.40;99.90;;;;;;4957237;28;20106;-65
2022/10/29 12:27:53;;;;;;;22.17;6.65;;;19.20;99.90;;;;;;4960529;28;20034;-69
2022/10/29 12:30:22;;;;;;;19.42;5.32;;;19.40;99.90;;;;;;4978581;28;20557;-66
2022/10/29 12:33:06;;;;;;;13.35;6.47;;;19.60;99.90;;;;;;4960819;28;20490;-66
2022/10/29 12:35:59;;;;;;;17.88;6.18;;;19.60;99.90;;;;;;4961579;28;20027;-66
2022/10/29 12:38:44;;;;;;;24.42;6.20;;;19.60;99.90;;;;;;4978208;28;20023;-69
2022/10/29 12:41:17;;;;;;;14.85;6.05;;;19.50;99.90;;;;;;4978113;28;20451;-69
2022/10/29 12:43:44;;;;;;;22.05;6.38;;;19.30;99.90;;;;;;4960525;28;20051;-66
2022/10/29 12:46:36;;;;;;;22.58;6.68;;;19.10;99.90;;;;;;4960701;28;20035;-66
2022/10/29 12:49:21;;;;;;;22.85;6.15;;;19.00;99.90;;;;;;4961775;28;20029;-66
2022/10/29 12:52:02;;;;;;;13.32;5.50;;;19.00;99.90;;;;;;4960972;28;20030;-68
2022/10/29 12:54:38;;;;;;;21.15;5.43;;;19.10;99.90;;;;;;4960570;28;20393;-69
2022/10/29 12:57:10;;;;;;;22.33;6.05;;;19.00;99.90;;;;;;4960534;28;20062;-69
2022/10/29 12:59:36;;;;;;;19.88;6.53;;;18.90;99.90;;;;;;4977949;28;20027;-68
2022/10/29 13:02:25;;;;;;;15.40;6.65;;;19.00;99.90;;;;;;4960591;28;20029;-68